Terminal Aerodrome Forecast
Issued by NWS

Home | Current Version | Previous Version | Graphics & Text | Print | Product List | Glossary On
Versions: 1 2 3 4 5 6 7 8 9 10 11 12 13 14 15 16
000
FTUS43 KICT 241700
TAFRSL
TAF
KRSL 241720Z 2418/2518 24006KT P6SM FEW080
     FM242200 VRB06KT P6SM VCTS SCT080CB BKN100
     FM250300 03008KT P6SM FEW060 BKN150
     FM250900 17008KT P6SM VCTS BKN090CB
     FM251600 17010KT P6SM SCT120=

USA.gov is the U.S. government's official web portal to all federal, state and local government web resources and services.